sensor_id;sensor_type;location;lat;lon;timestamp;P1;durP1;ratioP1;P2;durP2;ratioP2
20671;SDS011;10495;50.922;4.760;2022-07-23T00:00:58;7.47;;;5.40;;
20671;SDS011;10495;50.922;4.760;2022-07-23T00:03:23;6.70;;;5.70;;
20671;SDS011;10495;50.922;4.760;2022-07-23T00:05:49;6.37;;;5.37;;
20671;SDS011;10495;50.922;4.760;2022-07-23T00:08:15;7.57;;;5.80;;
20671;SDS011;10495;50.922;4.760;2022-07-23T00:10:41;8.07;;;6.07;;
20671;SDS011;10495;50.922;4.760;2022-07-23T00:13:06;6.43;;;5.83;;
20671;SDS011;10495;50.922;4.760;2022-07-23T00:15:32;6.30;;;5.70;;
20671;SDS011;10495;50.922;4.760;2022-07-23T00:17:58;5.47;;;4.83;;
20671;SDS011;10495;50.922;4.760;2022-07-23T00:20:23;6.20;;;5.60;;
20671;SDS011;10495;50.922;4.760;2022-07-23T00:22:50;5.43;;;4.53;;
20671;SDS011;10495;50.922;4.760;2022-07-23T00:25:18;4.97;;;4.43;;
20671;SDS011;10495;50.922;4.760;2022-07-23T00:27:44;4.90;;;4.30;;
20671;SDS011;10495;50.922;4.760;2022-07-23T00:30:10;6.40;;;4.97;;
20671;SDS011;10495;50.922;4.760;2022-07-23T00:32:46;4.90;;;4.40;;
20671;SDS011;10495;50.922;4.760;2022-07-23T00:35:13;5.00;;;4.47;;
20671;SDS011;10495;50.922;4.760;2022-07-23T00:37:40;6.40;;;5.77;;
20671;SDS011;10495;50.922;4.760;2022-07-23T00:40:05;5.17;;;4.50;;
20671;SDS011;10495;50.922;4.760;2022-07-23T00:42:32;6.17;;;5.57;;
20671;SDS011;10495;50.922;4.760;2022-07-23T00:44:57;7.10;;;6.27;;
20671;SDS011;10495;50.922;4.760;2022-07-23T00:47:23;10.83;;;7.93;;
20671;SDS011;10495;50.922;4.760;2022-07-23T00:49:49;9.03;;;7.07;;
20671;SDS011;10495;50.922;4.760;2022-07-23T00:52:14;10.20;;;6.30;;
20671;SDS011;10495;50.922;4.760;2022-07-23T00:54:40;6.50;;;5.40;;
20671;SDS011;10495;50.922;4.760;2022-07-23T00:57:06;9.20;;;6.33;;
20671;SDS011;10495;50.922;4.760;2022-07-23T00:59:33;6.23;;;5.43;;
20671;SDS011;10495;50.922;4.760;2022-07-23T01:01:59;7.13;;;5.70;;
20671;SDS011;10495;50.922;4.760;2022-07-23T01:04:24;7.33;;;6.10;;
20671;SDS011;10495;50.922;4.760;2022-07-23T01:06:50;7.03;;;6.00;;
20671;SDS011;10495;50.922;4.760;2022-07-23T01:09:16;6.67;;;5.60;;
20671;SDS011;10495;50.922;4.760;2022-07-23T01:11:42;8.23;;;5.73;;
20671;SDS011;10495;50.922;4.760;2022-07-23T01:14:08;5.73;;;5.10;;
20671;SDS011;10495;50.922;4.760;2022-07-23T01:16:35;6.03;;;4.50;;
20671;SDS011;10495;50.922;4.760;2022-07-23T01:19:01;6.50;;;5.43;;
20671;SDS011;10495;50.922;4.760;2022-07-23T01:21:28;8.47;;;5.20;;
20671;SDS011;10495;50.922;4.760;2022-07-23T01:23:55;8.40;;;5.10;;
20671;SDS011;10495;50.922;4.760;2022-07-23T01:26:20;5.63;;;4.90;;
20671;SDS011;10495;50.922;4.760;2022-07-23T01:28:46;5.77;;;4.70;;
20671;SDS011;10495;50.922;4.760;2022-07-23T01:31:11;6.40;;;4.90;;
20671;SDS011;10495;50.922;4.760;2022-07-23T01:33:37;4.73;;;4.23;;
20671;SDS011;10495;50.922;4.760;2022-07-23T01:36:03;4.40;;;4.00;;
20671;SDS011;10495;50.922;4.760;2022-07-23T01:38:28;4.83;;;3.90;;
20671;SDS011;10495;50.922;4.760;2022-07-23T01:40:54;3.90;;;3.60;;
20671;SDS011;10495;50.922;4.760;2022-07-23T01:43:20;4.13;;;3.73;;
20671;SDS011;10495;50.922;4.760;2022-07-23T01:45:45;3.40;;;3.10;;
20671;SDS011;10495;50.922;4.760;2022-07-23T01:48:11;3.47;;;3.10;;
20671;SDS011;10495;50.922;4.760;2022-07-23T01:50:37;3.77;;;3.37;;
20671;SDS011;10495;50.922;4.760;2022-07-23T01:53:02;4.20;;;3.63;;
20671;SDS011;10495;50.922;4.760;2022-07-23T01:55:28;3.50;;;3.17;;
20671;SDS011;10495;50.922;4.760;2022-07-23T01:57:53;3.30;;;3.00;;
20671;SDS011;10495;50.922;4.760;2022-07-23T02:00:19;3.40;;;3.10;;
20671;SDS011;10495;50.922;4.760;2022-07-23T02:02:45;4.70;;;3.77;;
20671;SDS011;10495;50.922;4.760;2022-07-23T02:05:10;6.50;;;5.03;;
20671;SDS011;10495;50.922;4.760;2022-07-23T02:07:36;4.07;;;3.67;;
20671;SDS011;10495;50.922;4.760;2022-07-23T02:10:02;3.70;;;3.37;;
20671;SDS011;10495;50.922;4.760;2022-07-23T02:12:28;3.63;;;3.20;;
20671;SDS011;10495;50.922;4.760;2022-07-23T02:14:53;4.30;;;3.27;;
20671;SDS011;10495;50.922;4.760;2022-07-23T02:17:19;4.53;;;3.90;;
20671;SDS011;10495;50.922;4.760;2022-07-23T02:19:44;3.53;;;3.23;;
20671;SDS011;10495;50.922;4.760;2022-07-23T02:22:10;4.90;;;3.50;;
20671;SDS011;10495;50.922;4.760;2022-07-23T02:24:36;3.77;;;3.47;;
20671;SDS011;10495;50.922;4.760;2022-07-23T02:27:01;3.23;;;2.93;;
20671;SDS011;10495;50.922;4.760;2022-07-23T02:29:27;4.23;;;3.83;;
20671;SDS011;10495;50.922;4.760;2022-07-23T02:31:52;3.27;;;2.97;;
20671;SDS011;10495;50.922;4.760;2022-07-23T02:34:18;3.13;;;2.90;;
20671;SDS011;10495;50.922;4.760;2022-07-23T02:36:43;3.97;;;3.40;;
20671;SDS011;10495;50.922;4.760;2022-07-23T02:39:09;3.97;;;3.00;;
20671;SDS011;10495;50.922;4.760;2022-07-23T02:41:35;3.70;;;3.40;;
20671;SDS011;10495;50.922;4.760;2022-07-23T02:44:01;3.63;;;3.33;;
20671;SDS011;10495;50.922;4.760;2022-07-23T02:46:26;4.37;;;3.80;;
20671;SDS011;10495;50.922;4.760;2022-07-23T02:48:52;4.43;;;3.90;;
20671;SDS011;10495;50.922;4.760;2022-07-23T02:51:19;4.67;;;3.20;;
20671;SDS011;10495;50.922;4.760;2022-07-23T02:53:44;4.50;;;4.10;;
20671;SDS011;10495;50.922;4.760;2022-07-23T02:56:10;4.90;;;4.37;;
20671;SDS011;10495;50.922;4.760;2022-07-23T02:58:35;4.20;;;3.80;;
20671;SDS011;10495;50.922;4.760;2022-07-23T03:01:01;4.60;;;3.83;;
20671;SDS011;10495;50.922;4.760;2022-07-23T03:03:27;4.30;;;3.90;;
20671;SDS011;10495;50.922;4.760;2022-07-23T03:05:53;5.23;;;4.37;;
20671;SDS011;10495;50.922;4.760;2022-07-23T03:08:18;6.07;;;4.37;;
20671;SDS011;10495;50.922;4.760;2022-07-23T03:10:44;4.03;;;3.63;;
20671;SDS011;10495;50.922;4.760;2022-07-23T03:13:09;3.77;;;3.47;;
20671;SDS011;10495;50.922;4.760;2022-07-23T03:15:35;5.10;;;3.83;;
20671;SDS011;10495;50.922;4.760;2022-07-23T03:18:00;4.50;;;4.00;;
20671;SDS011;10495;50.922;4.760;2022-07-23T03:20:26;5.43;;;4.20;;
20671;SDS011;10495;50.922;4.760;2022-07-23T03:22:52;7.63;;;6.60;;
20671;SDS011;10495;50.922;4.760;2022-07-23T03:25:17;6.93;;;5.70;;
20671;SDS011;10495;50.922;4.760;2022-07-23T03:27:43;6.30;;;5.60;;
20671;SDS011;10495;50.922;4.760;2022-07-23T03:30:10;6.57;;;5.37;;
20671;SDS011;10495;50.922;4.760;2022-07-23T03:32:36;6.80;;;5.57;;
20671;SDS011;10495;50.922;4.760;2022-07-23T03:35:02;7.33;;;5.30;;
20671;SDS011;10495;50.922;4.760;2022-07-23T03:37:28;7.80;;;6.17;;
20671;SDS011;10495;50.922;4.760;2022-07-23T03:39:54;6.80;;;5.80;;
20671;SDS011;10495;50.922;4.760;2022-07-23T03:42:20;6.93;;;5.40;;
20671;SDS011;10495;50.922;4.760;2022-07-23T03:44:45;6.00;;;4.87;;
20671;SDS011;10495;50.922;4.760;2022-07-23T03:47:11;4.83;;;4.33;;
20671;SDS011;10495;50.922;4.760;2022-07-23T03:49:36;5.30;;;4.63;;
20671;SDS011;10495;50.922;4.760;2022-07-23T03:52:02;9.20;;;6.13;;
20671;SDS011;10495;50.922;4.760;2022-07-23T03:54:28;6.67;;;5.60;;
20671;SDS011;10495;50.922;4.760;2022-07-23T03:56:53;8.40;;;6.33;;
20671;SDS011;10495;50.922;4.760;2022-07-23T03:59:19;6.67;;;5.57;;
20671;SDS011;10495;50.922;4.760;2022-07-23T04:01:46;7.40;;;5.37;;
20671;SDS011;10495;50.922;4.760;2022-07-23T04:04:11;10.23;;;7.33;;
20671;SDS011;10495;50.922;4.760;2022-07-23T04:06:37;8.63;;;7.07;;
20671;SDS011;10495;50.922;4.760;2022-07-23T04:09:03;9.17;;;6.40;;
20671;SDS011;10495;50.922;4.760;2022-07-23T04:11:29;7.87;;;5.73;;
20671;SDS011;10495;50.922;4.760;2022-07-23T04:13:55;8.23;;;5.80;;
20671;SDS011;10495;50.922;4.760;2022-07-23T04:16:21;6.63;;;5.60;;
20671;SDS011;10495;50.922;4.760;2022-07-23T04:18:46;7.50;;;5.33;;
20671;SDS011;10495;50.922;4.760;2022-07-23T04:21:12;8.40;;;6.23;;
20671;SDS011;10495;50.922;4.760;2022-07-23T04:23:38;6.10;;;5.50;;
20671;SDS011;10495;50.922;4.760;2022-07-23T04:26:03;10.00;;;7.17;;
20671;SDS011;10495;50.922;4.760;2022-07-23T04:28:29;10.30;;;7.03;;
20671;SDS011;10495;50.922;4.760;2022-07-23T04:30:58;7.43;;;5.50;;
20671;SDS011;10495;50.922;4.760;2022-07-23T04:33:24;7.20;;;5.27;;
20671;SDS011;10495;50.922;4.760;2022-07-23T04:35:49;5.87;;;5.07;;
20671;SDS011;10495;50.922;4.760;2022-07-23T04:38:15;5.80;;;4.90;;
20671;SDS011;10495;50.922;4.760;2022-07-23T04:40:40;6.63;;;5.03;;
20671;SDS011;10495;50.922;4.760;2022-07-23T04:43:06;5.63;;;4.93;;
20671;SDS011;10495;50.922;4.760;2022-07-23T04:45:32;5.83;;;4.80;;
20671;SDS011;10495;50.922;4.760;2022-07-23T04:47:57;7.50;;;5.67;;
20671;SDS011;10495;50.922;4.760;2022-07-23T04:50:23;7.17;;;5.97;;
20671;SDS011;10495;50.922;4.760;2022-07-23T04:52:49;6.57;;;5.67;;
20671;SDS011;10495;50.922;4.760;2022-07-23T04:55:15;10.87;;;6.80;;
20671;SDS011;10495;50.922;4.760;2022-07-23T04:57:41;7.90;;;6.70;;
20671;SDS011;10495;50.922;4.760;2022-07-23T05:00:07;8.73;;;7.37;;
20671;SDS011;10495;50.922;4.760;2022-07-23T05:02:34;11.27;;;7.27;;
20671;SDS011;10495;50.922;4.760;2022-07-23T05:04:59;9.97;;;8.07;;
20671;SDS011;10495;50.922;4.760;2022-07-23T05:07:25;8.13;;;7.07;;
20671;SDS011;10495;50.922;4.760;2022-07-23T05:09:50;10.70;;;8.47;;
20671;SDS011;10495;50.922;4.760;2022-07-23T05:12:16;8.83;;;7.27;;
20671;SDS011;10495;50.922;4.760;2022-07-23T05:14:42;11.27;;;8.30;;
20671;SDS011;10495;50.922;4.760;2022-07-23T05:17:07;12.87;;;8.73;;
20671;SDS011;10495;50.922;4.760;2022-07-23T05:19:33;16.03;;;9.37;;
20671;SDS011;10495;50.922;4.760;2022-07-23T05:22:00;10.43;;;8.17;;
20671;SDS011;10495;50.922;4.760;2022-07-23T05:24:25;15.00;;;9.57;;
20671;SDS011;10495;50.922;4.760;2022-07-23T05:26:51;13.40;;;10.13;;
20671;SDS011;10495;50.922;4.760;2022-07-23T05:29:17;14.30;;;11.93;;
20671;SDS011;10495;50.922;4.760;2022-07-23T05:31:42;14.67;;;12.70;;
20671;SDS011;10495;50.922;4.760;2022-07-23T05:34:08;16.43;;;12.40;;
20671;SDS011;10495;50.922;4.760;2022-07-23T05:36:34;16.67;;;13.17;;
20671;SDS011;10495;50.922;4.760;2022-07-23T05:39:00;14.60;;;12.47;;
20671;SDS011;10495;50.922;4.760;2022-07-23T05:41:25;17.77;;;13.10;;
20671;SDS011;10495;50.922;4.760;2022-07-23T05:43:51;15.10;;;11.17;;
20671;SDS011;10495;50.922;4.760;2022-07-23T05:46:17;15.60;;;11.33;;
20671;SDS011;10495;50.922;4.760;2022-07-23T05:48:42;15.13;;;11.83;;
20671;SDS011;10495;50.922;4.760;2022-07-23T05:51:10;13.97;;;11.07;;
20671;SDS011;10495;50.922;4.760;2022-07-23T05:53:36;13.60;;;11.20;;
20671;SDS011;10495;50.922;4.760;2022-07-23T05:56:03;11.77;;;9.30;;
20671;SDS011;10495;50.922;4.760;2022-07-23T05:58:29;12.13;;;9.67;;
20671;SDS011;10495;50.922;4.760;2022-07-23T06:00:54;12.88;;;9.57;;
20671;SDS011;10495;50.922;4.760;2022-07-23T06:03:20;12.50;;;9.97;;
20671;SDS011;10495;50.922;4.760;2022-07-23T06:05:45;11.93;;;10.25;;
20671;SDS011;10495;50.922;4.760;2022-07-23T06:08:11;10.07;;;8.98;;
20671;SDS011;10495;50.922;4.760;2022-07-23T06:10:37;13.82;;;10.10;;
20671;SDS011;10495;50.922;4.760;2022-07-23T06:13:02;9.55;;;8.00;;
20671;SDS011;10495;50.922;4.760;2022-07-23T06:15:28;11.60;;;8.27;;
20671;SDS011;10495;50.922;4.760;2022-07-23T06:17:55;8.75;;;7.30;;
20671;SDS011;10495;50.922;4.760;2022-07-23T06:20:20;10.82;;;9.20;;
20671;SDS011;10495;50.922;4.760;2022-07-23T06:22:46;9.60;;;8.27;;
20671;SDS011;10495;50.922;4.760;2022-07-23T06:25:12;13.48;;;8.90;;
20671;SDS011;10495;50.922;4.760;2022-07-23T06:27:37;8.77;;;7.10;;
20671;SDS011;10495;50.922;4.760;2022-07-23T06:30:03;12.02;;;9.43;;
20671;SDS011;10495;50.922;4.760;2022-07-23T06:32:29;9.82;;;7.93;;
20671;SDS011;10495;50.922;4.760;2022-07-23T06:34:54;10.95;;;8.18;;
20671;SDS011;10495;50.922;4.760;2022-07-23T06:37:20;11.27;;;9.27;;
20671;SDS011;10495;50.922;4.760;2022-07-23T06:39:46;7.88;;;7.00;;
20671;SDS011;10495;50.922;4.760;2022-07-23T06:42:11;9.55;;;8.60;;
20671;SDS011;10495;50.922;4.760;2022-07-23T06:44:37;11.52;;;9.20;;
20671;SDS011;10495;50.922;4.760;2022-07-23T06:47:03;9.77;;;8.73;;
20671;SDS011;10495;50.922;4.760;2022-07-23T06:49:28;12.13;;;9.93;;
20671;SDS011;10495;50.922;4.760;2022-07-23T06:51:54;9.88;;;8.88;;
20671;SDS011;10495;50.922;4.760;2022-07-23T06:54:20;10.65;;;9.55;;
20671;SDS011;10495;50.922;4.760;2022-07-23T06:56:45;10.68;;;8.40;;
20671;SDS011;10495;50.922;4.760;2022-07-23T06:59:14;9.50;;;7.65;;
20671;SDS011;10495;50.922;4.760;2022-07-23T07:01:39;9.93;;;7.53;;
20671;SDS011;10495;50.922;4.760;2022-07-23T07:04:05;9.70;;;8.52;;
20671;SDS011;10495;50.922;4.760;2022-07-23T07:06:31;9.05;;;8.15;;
20671;SDS011;10495;50.922;4.760;2022-07-23T07:08:56;9.93;;;8.93;;
20671;SDS011;10495;50.922;4.760;2022-07-23T07:11:22;13.90;;;9.63;;
20671;SDS011;10495;50.922;4.760;2022-07-23T07:13:49;8.98;;;7.95;;
20671;SDS011;10495;50.922;4.760;2022-07-23T07:16:14;9.88;;;7.47;;
20671;SDS011;10495;50.922;4.760;2022-07-23T07:18:40;8.30;;;7.38;;
20671;SDS011;10495;50.922;4.760;2022-07-23T07:21:06;9.52;;;8.57;;
20671;SDS011;10495;50.922;4.760;2022-07-23T07:23:31;9.98;;;8.98;;
20671;SDS011;10495;50.922;4.760;2022-07-23T07:25:57;11.38;;;8.63;;
20671;SDS011;10495;50.922;4.760;2022-07-23T07:28:22;8.93;;;6.53;;
20671;SDS011;10495;50.922;4.760;2022-07-23T07:30:48;7.18;;;5.88;;
20671;SDS011;10495;50.922;4.760;2022-07-23T07:33:14;12.02;;;9.38;;
20671;SDS011;10495;50.922;4.760;2022-07-23T07:35:39;8.63;;;7.80;;
20671;SDS011;10495;50.922;4.760;2022-07-23T07:38:05;9.18;;;7.80;;
20671;SDS011;10495;50.922;4.760;2022-07-23T07:40:30;8.70;;;6.97;;
20671;SDS011;10495;50.922;4.760;2022-07-23T07:42:56;7.95;;;7.15;;
20671;SDS011;10495;50.922;4.760;2022-07-23T07:45:22;10.48;;;7.40;;
20671;SDS011;10495;50.922;4.760;2022-07-23T07:47:48;10.15;;;7.63;;
20671;SDS011;10495;50.922;4.760;2022-07-23T07:50:14;8.73;;;6.10;;
20671;SDS011;10495;50.922;4.760;2022-07-23T07:52:40;6.90;;;6.20;;
20671;SDS011;10495;50.922;4.760;2022-07-23T07:55:07;8.32;;;5.65;;
20671;SDS011;10495;50.922;4.760;2022-07-23T07:57:34;8.02;;;7.05;;
20671;SDS011;10495;50.922;4.760;2022-07-23T08:00:00;7.57;;;6.78;;
20671;SDS011;10495;50.922;4.760;2022-07-23T08:02:26;10.25;;;6.25;;
20671;SDS011;10495;50.922;4.760;2022-07-23T08:04:52;8.63;;;6.38;;
20671;SDS011;10495;50.922;4.760;2022-07-23T08:07:18;9.63;;;6.85;;
20671;SDS011;10495;50.922;4.760;2022-07-23T08:09:44;9.75;;;6.75;;
20671;SDS011;10495;50.922;4.760;2022-07-23T08:12:09;8.65;;;7.85;;
20671;SDS011;10495;50.922;4.760;2022-07-23T08:14:35;7.75;;;6.80;;
20671;SDS011;10495;50.922;4.760;2022-07-23T08:17:00;12.63;;;7.03;;
20671;SDS011;10495;50.922;4.760;2022-07-23T08:19:26;10.93;;;7.78;;
20671;SDS011;10495;50.922;4.760;2022-07-23T08:21:52;9.85;;;6.60;;
20671;SDS011;10495;50.922;4.760;2022-07-23T08:24:17;7.82;;;5.43;;
20671;SDS011;10495;50.922;4.760;2022-07-23T08:26:43;7.35;;;6.07;;
20671;SDS011;10495;50.922;4.760;2022-07-23T08:29:08;6.90;;;5.85;;
20671;SDS011;10495;50.922;4.760;2022-07-23T08:31:34;6.65;;;5.70;;
20671;SDS011;10495;50.922;4.760;2022-07-23T08:34:00;11.50;;;6.65;;
20671;SDS011;10495;50.922;4.760;2022-07-23T08:36:27;9.13;;;6.18;;
20671;SDS011;10495;50.922;4.760;2022-07-23T08:38:53;8.60;;;7.70;;
20671;SDS011;10495;50.922;4.760;2022-07-23T08:41:19;8.15;;;5.43;;
20671;SDS011;10495;50.922;4.760;2022-07-23T08:43:45;6.40;;;4.13;;
20671;SDS011;10495;50.922;4.760;2022-07-23T08:46:12;9.85;;;5.75;;
20671;SDS011;10495;50.922;4.760;2022-07-23T08:48:39;6.55;;;5.05;;
20671;SDS011;10495;50.922;4.760;2022-07-23T08:51:05;8.88;;;5.57;;
20671;SDS011;10495;50.922;4.760;2022-07-23T08:53:32;8.77;;;6.10;;
20671;SDS011;10495;50.922;4.760;2022-07-23T08:56:02;10.50;;;7.40;;
20671;SDS011;10495;50.922;4.760;2022-07-23T08:58:28;13.38;;;6.65;;
20671;SDS011;10495;50.922;4.760;2022-07-23T09:00:55;7.45;;;5.47;;
20671;SDS011;10495;50.922;4.760;2022-07-23T09:03:23;7.63;;;6.80;;
20671;SDS011;10495;50.922;4.760;2022-07-23T09:05:50;9.75;;;7.90;;
20671;SDS011;10495;50.922;4.760;2022-07-23T09:08:20;6.93;;;5.18;;
20671;SDS011;10495;50.922;4.760;2022-07-23T09:13:37;6.43;;;5.28;;
20671;SDS011;10495;50.922;4.760;2022-07-23T09:16:05;6.60;;;4.97;;
20671;SDS011;10495;50.922;4.760;2022-07-23T09:18:33;4.63;;;4.07;;
20671;SDS011;10495;50.922;4.760;2022-07-23T09:21:45;8.73;;;5.30;;
20671;SDS011;10495;50.922;4.760;2022-07-23T09:23:59;7.85;;;6.25;;
20671;SDS011;10495;50.922;4.760;2022-07-23T09:26:39;6.45;;;5.47;;
20671;SDS011;10495;50.922;4.760;2022-07-23T09:29:18;7.20;;;4.93;;
20671;SDS011;10495;50.922;4.760;2022-07-23T09:31:47;6.82;;;5.78;;
20671;SDS011;10495;50.922;4.760;2022-07-23T09:34:21;5.18;;;4.68;;
20671;SDS011;10495;50.922;4.760;2022-07-23T09:36:56;6.88;;;5.90;;
20671;SDS011;10495;50.922;4.760;2022-07-23T09:41:58;4.60;;;3.75;;
20671;SDS011;10495;50.922;4.760;2022-07-23T09:44:45;6.32;;;5.10;;
20671;SDS011;10495;50.922;4.760;2022-07-23T09:47:12;4.72;;;4.20;;
20671;SDS011;10495;50.922;4.760;2022-07-23T09:49:38;4.32;;;3.90;;
20671;SDS011;10495;50.922;4.760;2022-07-23T09:52:04;6.60;;;4.82;;
20671;SDS011;10495;50.922;4.760;2022-07-23T09:54:39;6.65;;;6.03;;
20671;SDS011;10495;50.922;4.760;2022-07-23T09:57:06;6.15;;;4.63;;
20671;SDS011;10495;50.922;4.760;2022-07-23T09:59:37;5.45;;;3.47;;
20671;SDS011;10495;50.922;4.760;2022-07-23T10:02:05;7.57;;;5.13;;
20671;SDS011;10495;50.922;4.760;2022-07-23T10:04:32;5.35;;;3.45;;
20671;SDS011;10495;50.922;4.760;2022-07-23T10:07:00;6.18;;;4.00;;
20671;SDS011;10495;50.922;4.760;2022-07-23T10:09:28;5.03;;;3.45;;
20671;SDS011;10495;50.922;4.760;2022-07-23T10:12:03;3.38;;;3.03;;
20671;SDS011;10495;50.922;4.760;2022-07-23T10:14:48;5.07;;;3.28;;
20671;SDS011;10495;50.922;4.760;2022-07-23T10:17:15;4.78;;;3.42;;
20671;SDS011;10495;50.922;4.760;2022-07-23T10:19:41;4.63;;;2.97;;
20671;SDS011;10495;50.922;4.760;2022-07-23T10:22:13;3.10;;;2.72;;
20671;SDS011;10495;50.922;4.760;2022-07-23T10:24:49;6.43;;;3.90;;
20671;SDS011;10495;50.922;4.760;2022-07-23T10:30:06;5.07;;;3.47;;
20671;SDS011;10495;50.922;4.760;2022-07-23T10:32:44;2.80;;;2.30;;
20671;SDS011;10495;50.922;4.760;2022-07-23T10:37:50;4.53;;;2.75;;
20671;SDS011;10495;50.922;4.760;2022-07-23T10:40:20;3.92;;;2.80;;
20671;SDS011;10495;50.922;4.760;2022-07-23T10:42:49;4.40;;;2.90;;
20671;SDS011;10495;50.922;4.760;2022-07-23T10:50:41;4.60;;;3.55;;
20671;SDS011;10495;50.922;4.760;2022-07-23T10:58:03;2.85;;;1.80;;
20671;SDS011;10495;50.922;4.760;2022-07-23T11:00:30;2.33;;;1.45;;
20671;SDS011;10495;50.922;4.760;2022-07-23T11:02:58;3.05;;;1.65;;
20671;SDS011;10495;50.922;4.760;2022-07-23T11:05:26;3.42;;;1.83;;
20671;SDS011;10495;50.922;4.760;2022-07-23T11:10:37;2.63;;;1.67;;
20671;SDS011;10495;50.922;4.760;2022-07-23T11:34:28;3.92;;;2.00;;
20671;SDS011;10495;50.922;4.760;2022-07-23T11:36:54;2.72;;;2.20;;
20671;SDS011;10495;50.922;4.760;2022-07-23T11:39:20;2.30;;;2.10;;
20671;SDS011;10495;50.922;4.760;2022-07-23T11:41:49;2.45;;;2.00;;
20671;SDS011;10495;50.922;4.760;2022-07-23T11:46:58;2.65;;;1.90;;
20671;SDS011;10495;50.922;4.760;2022-07-23T11:49:25;1.90;;;1.80;;
20671;SDS011;10495;50.922;4.760;2022-07-23T11:52:10;1.60;;;1.50;;
20671;SDS011;10495;50.922;4.760;2022-07-23T11:54:49;3.17;;;1.90;;
20671;SDS011;10495;50.922;4.760;2022-07-23T11:57:17;3.45;;;1.42;;
20671;SDS011;10495;50.922;4.760;2022-07-23T11:59:45;2.17;;;1.60;;
20671;SDS011;10495;50.922;4.760;2022-07-23T12:02:14;2.72;;;1.90;;
20671;SDS011;10495;50.922;4.760;2022-07-23T12:04:40;3.35;;;1.70;;
20671;SDS011;10495;50.922;4.760;2022-07-23T12:09:58;1.80;;;1.60;;
20671;SDS011;10495;50.922;4.760;2022-07-23T12:12:25;2.67;;;1.70;;
20671;SDS011;10495;50.922;4.760;2022-07-23T12:14:52;2.30;;;2.10;;
20671;SDS011;10495;50.922;4.760;2022-07-23T12:17:29;4.38;;;2.17;;
20671;SDS011;10495;50.922;4.760;2022-07-23T12:19:59;3.67;;;2.45;;
20671;SDS011;10495;50.922;4.760;2022-07-23T12:22:33;2.30;;;2.10;;
20671;SDS011;10495;50.922;4.760;2022-07-23T12:25:01;3.17;;;2.40;;
20671;SDS011;10495;50.922;4.760;2022-07-23T12:27:29;2.72;;;2.25;;
20671;SDS011;10495;50.922;4.760;2022-07-23T12:29:55;3.65;;;2.42;;
20671;SDS011;10495;50.922;4.760;2022-07-23T12:35:06;3.95;;;2.40;;
20671;SDS011;10495;50.922;4.760;2022-07-23T12:37:34;2.88;;;2.58;;
20671;SDS011;10495;50.922;4.760;2022-07-23T12:42:58;2.70;;;2.50;;
20671;SDS011;10495;50.922;4.760;2022-07-23T12:45:24;2.45;;;2.25;;
20671;SDS011;10495;50.922;4.760;2022-07-23T12:48:04;2.67;;;2.40;;
20671;SDS011;10495;50.922;4.760;2022-07-23T12:50:41;2.83;;;2.25;;
20671;SDS011;10495;50.922;4.760;2022-07-23T12:53:21;4.32;;;2.60;;
20671;SDS011;10495;50.922;4.760;2022-07-23T12:56:06;2.60;;;2.40;;
20671;SDS011;10495;50.922;4.760;2022-07-23T13:01:08;2.85;;;2.50;;
20671;SDS011;10495;50.922;4.760;2022-07-23T13:03:38;3.25;;;2.75;;
20671;SDS011;10495;50.922;4.760;2022-07-23T13:06:06;3.63;;;2.85;;
20671;SDS011;10495;50.922;4.760;2022-07-23T13:08:34;2.58;;;2.30;;
20671;SDS011;10495;50.922;4.760;2022-07-23T13:11:01;4.55;;;2.72;;
20671;SDS011;10495;50.922;4.760;2022-07-23T13:13:28;3.15;;;2.85;;
20671;SDS011;10495;50.922;4.760;2022-07-23T13:15:56;3.03;;;2.72;;
20671;SDS011;10495;50.922;4.760;2022-07-23T13:18:22;3.65;;;2.72;;
20671;SDS011;10495;50.922;4.760;2022-07-23T13:20:49;2.75;;;2.50;;
20671;SDS011;10495;50.922;4.760;2022-07-23T13:23:15;2.83;;;2.58;;
20671;SDS011;10495;50.922;4.760;2022-07-23T13:25:41;3.10;;;2.80;;
20671;SDS011;10495;50.922;4.760;2022-07-23T13:28:07;2.65;;;2.45;;
20671;SDS011;10495;50.922;4.760;2022-07-23T13:30:33;3.88;;;2.78;;
20671;SDS011;10495;50.922;4.760;2022-07-23T13:33:00;2.92;;;2.63;;
20671;SDS011;10495;50.922;4.760;2022-07-23T13:35:27;4.35;;;2.65;;
20671;SDS011;10495;50.922;4.760;2022-07-23T13:37:52;4.15;;;2.83;;
20671;SDS011;10495;50.922;4.760;2022-07-23T13:40:18;3.95;;;2.67;;
20671;SDS011;10495;50.922;4.760;2022-07-23T13:42:44;8.15;;;3.65;;
20671;SDS011;10495;50.922;4.760;2022-07-23T13:45:09;2.85;;;2.65;;
20671;SDS011;10495;50.922;4.760;2022-07-23T13:47:35;3.35;;;2.80;;
20671;SDS011;10495;50.922;4.760;2022-07-23T13:50:00;3.05;;;2.75;;
20671;SDS011;10495;50.922;4.760;2022-07-23T13:52:26;4.93;;;3.22;;
20671;SDS011;10495;50.922;4.760;2022-07-23T13:54:52;4.55;;;2.85;;
20671;SDS011;10495;50.922;4.760;2022-07-23T13:57:17;3.40;;;3.10;;
20671;SDS011;10495;50.922;4.760;2022-07-23T13:59:43;3.75;;;3.30;;
20671;SDS011;10495;50.922;4.760;2022-07-23T14:02:09;3.88;;;2.97;;
20671;SDS011;10495;50.922;4.760;2022-07-23T14:04:35;3.20;;;2.90;;
20671;SDS011;10495;50.922;4.760;2022-07-23T14:07:00;4.53;;;2.85;;
20671;SDS011;10495;50.922;4.760;2022-07-23T14:09:26;3.08;;;2.75;;
20671;SDS011;10495;50.922;4.760;2022-07-23T14:11:52;3.22;;;2.92;;
20671;SDS011;10495;50.922;4.760;2022-07-23T14:14:18;3.55;;;3.05;;
20671;SDS011;10495;50.922;4.760;2022-07-23T14:16:44;3.45;;;2.88;;
20671;SDS011;10495;50.922;4.760;2022-07-23T14:19:10;3.42;;;3.08;;
20671;SDS011;10495;50.922;4.760;2022-07-23T14:21:36;3.10;;;2.72;;
20671;SDS011;10495;50.922;4.760;2022-07-23T14:24:02;6.43;;;3.58;;
20671;SDS011;10495;50.922;4.760;2022-07-23T14:26:28;5.25;;;2.80;;
20671;SDS011;10495;50.922;4.760;2022-07-23T14:28:54;4.38;;;3.10;;
20671;SDS011;10495;50.922;4.760;2022-07-23T14:31:20;3.38;;;2.78;;
20671;SDS011;10495;50.922;4.760;2022-07-23T14:33:46;3.50;;;3.20;;
20671;SDS011;10495;50.922;4.760;2022-07-23T14:36:13;3.25;;;2.70;;
20671;SDS011;10495;50.922;4.760;2022-07-23T14:38:38;4.97;;;2.97;;
20671;SDS011;10495;50.922;4.760;2022-07-23T14:41:04;3.42;;;3.13;;
20671;SDS011;10495;50.922;4.760;2022-07-23T14:43:32;6.30;;;3.10;;
20671;SDS011;10495;50.922;4.760;2022-07-23T14:45:58;3.08;;;2.80;;
20671;SDS011;10495;50.922;4.760;2022-07-23T14:48:23;4.28;;;2.80;;
20671;SDS011;10495;50.922;4.760;2022-07-23T14:50:49;3.72;;;2.90;;
20671;SDS011;10495;50.922;4.760;2022-07-23T14:53:15;4.38;;;3.17;;
20671;SDS011;10495;50.922;4.760;2022-07-23T14:55:40;3.97;;;3.30;;
20671;SDS011;10495;50.922;4.760;2022-07-23T14:58:06;3.70;;;3.33;;
20671;SDS011;10495;50.922;4.760;2022-07-23T15:00:31;5.07;;;3.00;;
20671;SDS011;10495;50.922;4.760;2022-07-23T15:02:57;3.17;;;2.90;;
20671;SDS011;10495;50.922;4.760;2022-07-23T15:05:23;3.63;;;3.30;;
20671;SDS011;10495;50.922;4.760;2022-07-23T15:07:49;3.80;;;3.40;;
20671;SDS011;10495;50.922;4.760;2022-07-23T15:10:15;3.30;;;2.80;;
20671;SDS011;10495;50.922;4.760;2022-07-23T15:12:40;4.82;;;3.63;;
20671;SDS011;10495;50.922;4.760;2022-07-23T15:15:06;3.38;;;2.60;;
20671;SDS011;10495;50.922;4.760;2022-07-23T15:17:33;4.70;;;3.00;;
20671;SDS011;10495;50.922;4.760;2022-07-23T15:19:58;3.10;;;2.88;;
20671;SDS011;10495;50.922;4.760;2022-07-23T15:22:24;3.85;;;3.10;;
20671;SDS011;10495;50.922;4.760;2022-07-23T15:24:50;4.97;;;3.38;;
20671;SDS011;10495;50.922;4.760;2022-07-23T15:27:16;6.70;;;3.35;;
20671;SDS011;10495;50.922;4.760;2022-07-23T15:29:42;4.20;;;3.33;;
20671;SDS011;10495;50.922;4.760;2022-07-23T15:32:09;4.20;;;3.38;;
20671;SDS011;10495;50.922;4.760;2022-07-23T15:34:36;4.03;;;3.60;;
20671;SDS011;10495;50.922;4.760;2022-07-23T15:37:03;3.97;;;3.33;;
20671;SDS011;10495;50.922;4.760;2022-07-23T15:39:30;5.05;;;3.20;;
20671;SDS011;10495;50.922;4.760;2022-07-23T15:41:57;6.25;;;4.05;;